Terminal Aerodrome Forecast
Issued by NWS

Home | Current Version | Previous Version | Text Only | Print | Product List | Glossary On
Versions: 1 2 3 4 5 6 7 8 9 10 11 12 13 14 15 16 17 18 19 20 21 22 23 24 25 26 27 28 29 30 31 32 33 34 35 36 37 38 39 40
000
FTUS42 KEYW 310300 AAA
TAFMTH
TAF AMD
KMTH 310350Z 3104/3124 20006KT P6SM VCTS SCT027CB BKN050
      TEMPO 3104/3105 2SM +TSRA BKN027CB OVC050
     FM310600 VRB03KT P6SM SCT027 SCT050
     FM311400 22005KT P6SM SCT027=

USA.gov is the U.S. government's official web portal to all federal, state and local government web resources and services.